createdAt,value
2018-10-18T00:00:08.933Z,83.31
2018-10-18T00:00:34.995Z,83.22
2018-10-18T00:01:01.123Z,83.03
2018-10-18T00:01:27.284Z,83.12
2018-10-18T00:01:53.423Z,82.54
2018-10-18T00:02:19.563Z,82.93
2018-10-18T00:02:45.700Z,82.64
2018-10-18T00:03:11.886Z,82.64
2018-10-18T00:03:38.028Z,83.22
2018-10-18T00:04:04.179Z,83.22
2018-10-18T00:04:30.315Z,83.03
2018-10-18T00:04:56.453Z,83.03
2018-10-18T00:05:22.612Z,83.31
2018-10-18T00:05:48.767Z,82.64
2018-10-18T00:06:15.023Z,83.03
2018-10-18T00:06:41.058Z,82.74
2018-10-18T00:07:07.217Z,82.93
2018-10-18T00:07:33.352Z,82.64
2018-10-18T00:07:59.491Z,82.64
2018-10-18T00:08:25.643Z,82.45
2018-10-18T00:08:51.793Z,82.54
2018-10-18T00:09:17.929Z,82.74
2018-10-18T00:09:44.066Z,82.84
2018-10-18T00:10:10.196Z,82.74
2018-10-18T00:10:36.331Z,83.03
2018-10-18T00:11:02.488Z,82.54
2018-10-18T00:11:28.616Z,82.64
2018-10-18T00:11:54.803Z,82.54
2018-10-18T00:12:20.900Z,83.03
2018-10-18T00:12:47.037Z,83.03
2018-10-18T00:13:13.167Z,83.03
2018-10-18T00:13:39.303Z,83.22
2018-10-18T00:14:05.545Z,83.22
2018-10-18T00:14:31.652Z,82.93
2018-10-18T00:14:57.784Z,83.6
2018-10-18T00:15:23.916Z,83.31
2018-10-18T00:15:50.047Z,83.03
2018-10-18T00:16:16.171Z,83.6
2018-10-18T00:16:42.312Z,83.6
2018-10-18T00:17:08.445Z,83.41
2018-10-18T00:17:34.578Z,83.31
2018-10-18T00:18:00.750Z,83.7
2018-10-18T00:18:26.900Z,83.7
2018-10-18T00:18:53.037Z,83.51
2018-10-18T00:19:19.172Z,83.7
2018-10-18T00:19:45.313Z,83.7
2018-10-18T00:20:11.593Z,83.31
2018-10-18T00:20:37.629Z,83.41
2018-10-18T00:21:03.780Z,83.41
2018-10-18T00:21:29.967Z,83.31
2018-10-18T00:21:56.123Z,83.7
2018-10-18T00:22:22.302Z,84.08
2018-10-18T00:22:48.436Z,83.98
2018-10-18T00:23:14.570Z,83.89
2018-10-18T00:23:40.721Z,83.98
2018-10-18T00:24:06.964Z,83.6
2018-10-18T00:24:33.014Z,84.08
2018-10-18T00:24:59.163Z,84.18
2018-10-18T00:25:25.327Z,83.98
2018-10-18T00:25:51.471Z,83.89
2018-10-18T00:26:17.739Z,84.08
2018-10-18T00:26:43.780Z,83.41
2018-10-18T00:27:09.918Z,83.89
2018-10-18T00:27:36.053Z,83.7
2018-10-18T00:28:02.184Z,83.89
2018-10-18T00:28:28.320Z,84.18
2018-10-18T00:28:54.454Z,84.08
2018-10-18T00:29:20.593Z,84.18
2018-10-18T00:29:46.724Z,83.98
2018-10-18T00:30:12.892Z,84.08
2018-10-18T00:30:39.014Z,84.27
2018-10-18T00:31:05.176Z,83.89
2018-10-18T00:31:31.922Z,84.27
2018-10-18T00:31:58.100Z,84.37
2018-10-18T00:32:24.234Z,84.27
2018-10-18T00:32:50.360Z,84.27
2018-10-18T00:33:16.533Z,84.33
2018-10-18T00:33:42.685Z,84.37
2018-10-18T00:34:08.816Z,84.27
2018-10-18T00:34:34.948Z,84.75
2018-10-18T00:35:01.109Z,84.42
2018-10-18T00:35:27.263Z,84.61
2018-10-18T00:35:53.452Z,84.71
2018-10-18T00:36:19.595Z,84.61
2018-10-18T00:36:45.729Z,84.71
2018-10-18T00:37:11.861Z,85.19
2018-10-18T00:37:38.016Z,84.91
2018-10-18T00:38:04.188Z,85.1
2018-10-18T00:38:30.324Z,85.1
2018-10-18T00:38:56.453Z,85.1
2018-10-18T00:39:22.587Z,85.14
2018-10-18T00:39:48.738Z,84.75
2018-10-18T00:40:14.882Z,84.95
2018-10-18T00:40:41.010Z,84.85
2018-10-18T00:41:07.140Z,84.56
2018-10-18T00:41:33.273Z,84.85
2018-10-18T00:41:59.456Z,84.66
2018-10-18T00:42:25.564Z,84.71
2018-10-18T00:42:51.721Z,84.71
2018-10-18T00:43:17.877Z,84.61
2018-10-18T00:43:44.015Z,84.71
2018-10-18T00:44:10.151Z,84.95
2018-10-18T00:44:36.308Z,84.71
2018-10-18T00:45:02.447Z,84.61
2018-10-18T00:45:28.606Z,85.1
2018-10-18T00:45:54.785Z,85.19
2018-10-18T00:46:20.920Z,85.14
2018-10-18T00:46:47.050Z,84.52
2018-10-18T00:47:13.211Z,84.75
2018-10-18T00:47:39.349Z,84.75
2018-10-18T00:48:05.512Z,84.95
2018-10-18T00:48:31.672Z,84.27
2018-10-18T00:48:57.804Z,84.37
2018-10-18T00:49:23.970Z,84.37
2018-10-18T00:49:50.126Z,84.18
2018-10-18T00:50:16.377Z,84.18
2018-10-18T00:50:42.469Z,84.47
2018-10-18T00:51:08.601Z,84.47
2018-10-18T00:51:34.732Z,84.08
2018-10-18T00:52:00.885Z,84.18
2018-10-18T00:52:27.020Z,83.89
2018-10-18T00:52:53.162Z,83.89
2018-10-18T00:53:19.296Z,84.47
2018-10-18T00:53:45.456Z,84.08
2018-10-18T00:54:11.725Z,84.37
2018-10-18T00:54:37.766Z,84.37
2018-10-18T00:55:03.894Z,83.89
2018-10-18T00:55:30.024Z,83.6
2018-10-18T00:55:56.173Z,83.8
2018-10-18T00:56:22.299Z,83.89
2018-10-18T00:56:48.458Z,83.89
2018-10-18T00:57:14.595Z,83.6
2018-10-18T00:57:40.751Z,83.8
2018-10-18T00:58:06.885Z,83.89
2018-10-18T00:58:33.043Z,83.7
2018-10-18T00:58:59.181Z,83.98
2018-10-18T00:59:25.316Z,83.41
2018-10-18T00:59:51.451Z,83.51
2018-10-18T01:00:17.764Z,83.31
2018-10-18T01:00:43.740Z,83.51
2018-10-18T01:01:09.878Z,83.51
2018-10-18T01:01:36.014Z,83.31
2018-10-18T01:02:02.225Z,83.6
2018-10-18T01:02:28.295Z,83.51
2018-10-18T01:02:54.433Z,83.41
2018-10-18T01:03:20.587Z,83.51
2018-10-18T01:03:46.725Z,83.41
2018-10-18T01:04:12.861Z,83.6
2018-10-18T01:04:39.019Z,83.51
2018-10-18T01:05:05.147Z,83.51
2018-10-18T01:05:31.285Z,83.6
2018-10-18T01:05:57.426Z,83.6
2018-10-18T01:06:23.568Z,83.51
2018-10-18T01:06:49.709Z,83.12
2018-10-18T01:07:15.880Z,83.03
2018-10-18T01:07:42.020Z,83.03
2018-10-18T01:08:08.278Z,82.93
2018-10-18T01:08:34.370Z,82.93
2018-10-18T01:09:00.502Z,83.7
2018-10-18T01:09:26.633Z,83.51
2018-10-18T01:09:52.763Z,83.56
2018-10-18T01:10:18.896Z,83.31
2018-10-18T01:10:45.031Z,83.22
2018-10-18T01:11:11.159Z,83.22
2018-10-18T01:11:37.293Z,83.89
2018-10-18T01:12:03.546Z,83.03
2018-10-18T01:12:29.785Z,83.03
2018-10-18T01:12:55.783Z,83.03
2018-10-18T01:13:21.918Z,83.31
2018-10-18T01:13:48.053Z,83.51
2018-10-18T01:14:14.305Z,83.7
2018-10-18T01:14:40.351Z,83.47
2018-10-18T01:15:06.517Z,83.41
2018-10-18T01:15:32.656Z,83.51
2018-10-18T01:15:58.793Z,83.41
2018-10-18T01:16:24.922Z,83.51
2018-10-18T01:16:51.062Z,83.41
2018-10-18T01:17:17.201Z,83.51
2018-10-18T01:17:43.331Z,83.41
2018-10-18T01:18:09.563Z,83.89
2018-10-18T01:18:35.643Z,83.51
2018-10-18T01:19:01.803Z,83.31
2018-10-18T01:19:27.962Z,83.31
2018-10-18T01:19:54.127Z,83.51
2018-10-18T01:20:20.261Z,83.6
2018-10-18T01:20:46.400Z,83.41
2018-10-18T01:21:12.533Z,83.6
2018-10-18T01:21:38.665Z,83.8
2018-10-18T01:22:04.801Z,83.8
2018-10-18T01:22:30.927Z,82.93
2018-10-18T01:22:57.059Z,82.84
2018-10-18T01:23:23.195Z,83.31
2018-10-18T01:23:49.349Z,83.51
2018-10-18T01:24:15.606Z,82.93
2018-10-18T01:24:41.658Z,82.54
2018-10-18T01:25:07.796Z,82.84
2018-10-18T01:25:33.927Z,82.64
2018-10-18T01:26:00.094Z,82.54
2018-10-18T01:26:26.227Z,83.12
2018-10-18T01:26:52.367Z,83.03
2018-10-18T01:27:18.498Z,83.12
2018-10-18T01:27:44.629Z,82.93
2018-10-18T01:28:10.765Z,82.84
2018-10-18T01:28:36.896Z,82.84
2018-10-18T01:29:03.036Z,83.12
2018-10-18T01:29:29.195Z,83.12
2018-10-18T01:29:55.353Z,83.22
2018-10-18T01:30:21.498Z,83.03
2018-10-18T01:30:47.633Z,83.22
2018-10-18T01:31:13.786Z,83.31
2018-10-18T01:31:39.923Z,83.22
2018-10-18T01:32:06.185Z,83.22
2018-10-18T01:32:32.210Z,83.22
2018-10-18T01:32:58.345Z,83.03
2018-10-18T01:33:24.479Z,83.03
2018-10-18T01:33:50.608Z,83.12
2018-10-18T01:34:16.780Z,83.31
2018-10-18T01:34:42.930Z,83.12
2018-10-18T01:35:09.059Z,83.03
2018-10-18T01:35:35.219Z,83.03
2018-10-18T01:36:01.392Z,83.12
2018-10-18T01:36:27.513Z,83.03
2018-10-18T01:36:53.642Z,82.74
2018-10-18T01:37:19.772Z,83.03
2018-10-18T01:37:45.913Z,82.54
2018-10-18T01:38:12.093Z,82.26
2018-10-18T01:38:38.250Z,82.35
2018-10-18T01:39:04.412Z,82.35
2018-10-18T01:39:30.546Z,82.64
2018-10-18T01:39:56.675Z,82.54
2018-10-18T01:40:22.813Z,82.74
2018-10-18T01:40:48.945Z,81.49
2018-10-18T01:41:15.084Z,81.87
2018-10-18T01:41:41.238Z,82.07
2018-10-18T01:42:07.488Z,81.87
2018-10-18T01:42:33.578Z,81.68
2018-10-18T01:42:59.703Z,82.45
2018-10-18T01:43:25.847Z,82.64
2018-10-18T01:43:51.984Z,82.35
2018-10-18T01:44:18.130Z,82.35
2018-10-18T01:44:44.292Z,82.16
2018-10-18T01:45:10.426Z,82.26
2018-10-18T01:45:36.568Z,82.64
2018-10-18T01:46:02.730Z,82.64
2018-10-18T01:46:28.866Z,82.54
2018-10-18T01:46:55.012Z,82.45
2018-10-18T01:47:21.194Z,82.45
2018-10-18T01:47:47.306Z,82.54
2018-10-18T01:48:13.525Z,82.93
2018-10-18T01:48:39.616Z,82.84
2018-10-18T01:49:05.747Z,82.93
2018-10-18T01:49:31.928Z,82.35
2018-10-18T01:49:58.124Z,82.54
2018-10-18T01:50:24.221Z,82.45
2018-10-18T01:50:50.347Z,82.54
2018-10-18T01:51:16.506Z,82.16
2018-10-18T01:51:42.656Z,82.16
2018-10-18T01:52:08.799Z,82.16
2018-10-18T01:52:34.929Z,82.45
2018-10-18T01:53:01.062Z,82.26
2018-10-18T01:53:27.205Z,82.45
2018-10-18T01:53:53.392Z,82.26
2018-10-18T01:54:19.535Z,82.74
2018-10-18T01:54:45.670Z,82.45
2018-10-18T01:55:11.804Z,82.54
2018-10-18T01:55:37.931Z,82.64
2018-10-18T01:56:04.145Z,82.26
2018-10-18T01:56:30.234Z,82.26
2018-10-18T01:56:56.368Z,82.93
2018-10-18T01:57:22.504Z,81.68
2018-10-18T01:57:48.642Z,81.49
2018-10-18T01:58:14.771Z,81.78
2018-10-18T01:58:40.909Z,81.68
2018-10-18T01:59:07.057Z,81.3
2018-10-18T01:59:33.188Z,81.4
2018-10-18T01:59:59.348Z,81.49
2018-10-18T02:00:25.480Z,81.68
2018-10-18T02:00:51.599Z,82.54
2018-10-18T02:01:17.746Z,82.64
2018-10-18T02:01:43.901Z,82.74
2018-10-18T02:02:10.110Z,82.93
2018-10-18T02:02:36.208Z,82.35
2018-10-18T02:03:02.338Z,82.54
2018-10-18T02:03:28.500Z,82.35
2018-10-18T02:03:54.635Z,81.87
2018-10-18T02:04:20.774Z,81.87
2018-10-18T02:04:46.925Z,81.78
2018-10-18T02:05:13.099Z,81.68
2018-10-18T02:05:39.235Z,81.68
2018-10-18T02:06:05.426Z,82.16
2018-10-18T02:06:31.553Z,82.84
2018-10-18T02:06:57.684Z,82.45
2018-10-18T02:07:23.860Z,82.74
2018-10-18T02:07:49.994Z,82.74
2018-10-18T02:08:16.257Z,82.45
2018-10-18T02:08:42.321Z,82.74
2018-10-18T02:09:08.456Z,82.16
2018-10-18T02:09:34.594Z,82.54
2018-10-18T02:10:00.720Z,82.45
2018-10-18T02:10:26.858Z,82.16
2018-10-18T02:10:52.984Z,82.26
2018-10-18T02:11:19.123Z,82.45
2018-10-18T02:11:45.255Z,82.54
2018-10-18T02:12:11.477Z,83.03
2018-10-18T02:12:37.545Z,82.93
2018-10-18T02:13:03.686Z,82.84
2018-10-18T02:13:29.877Z,82.54
2018-10-18T02:13:55.967Z,82.16
2018-10-18T02:14:22.129Z,82.93
2018-10-18T02:14:48.292Z,82.74
2018-10-18T02:15:14.425Z,82.74
2018-10-18T02:15:40.577Z,82.84
2018-10-18T02:16:06.715Z,82.35
2018-10-18T02:16:32.869Z,82.45
2018-10-18T02:16:59.010Z,82.54
2018-10-18T02:17:25.139Z,82.26
2018-10-18T02:17:51.279Z,82.35
2018-10-18T02:18:17.494Z,82.16
2018-10-18T02:18:43.605Z,82.54
2018-10-18T02:19:09.787Z,82.64
2018-10-18T02:19:35.913Z,82.54
2018-10-18T02:20:02.060Z,82.45
2018-10-18T02:20:28.210Z,82.64
2018-10-18T02:20:54.369Z,82.35
2018-10-18T02:21:20.516Z,82.26
2018-10-18T02:21:46.659Z,82.93
2018-10-18T02:22:12.812Z,82.74
2018-10-18T02:22:38.947Z,82.54
2018-10-18T02:23:05.128Z,82.54
2018-10-18T02:23:31.267Z,82.54
2018-10-18T02:23:57.479Z,82.07
2018-10-18T02:24:23.554Z,81.78
2018-10-18T02:24:49.684Z,81.78
2018-10-18T02:25:15.925Z,81.59
2018-10-18T02:25:41.970Z,81.97
2018-10-18T02:26:08.125Z,82.45
2018-10-18T02:26:34.256Z,82.16
2018-10-18T02:27:00.412Z,82.64
2018-10-18T02:27:26.552Z,82.45
2018-10-18T02:27:52.683Z,81.78
2018-10-18T02:28:18.815Z,81.87
2018-10-18T02:28:44.962Z,82.54
2018-10-18T02:29:11.093Z,81.78
2018-10-18T02:29:37.246Z,81.97
2018-10-18T02:30:03.492Z,81.87
2018-10-18T02:30:29.517Z,81.78
2018-10-18T02:30:55.689Z,81.49
2018-10-18T02:31:21.811Z,81.59
2018-10-18T02:31:47.968Z,81.49
2018-10-18T02:32:14.096Z,81.4
2018-10-18T02:32:40.251Z,81.68
2018-10-18T02:33:06.410Z,81.87
2018-10-18T02:33:32.545Z,81.49
2018-10-18T02:33:58.679Z,82.16
2018-10-18T02:34:24.812Z,82.16
2018-10-18T02:34:50.945Z,81.87
2018-10-18T02:35:17.106Z,82.35
2018-10-18T02:35:43.269Z,82.35
2018-10-18T02:36:09.565Z,82.93
2018-10-18T02:36:35.568Z,82.74
2018-10-18T02:37:01.724Z,82.54
2018-10-18T02:37:27.872Z,82.35
2018-10-18T02:37:54.010Z,82.74
2018-10-18T02:38:20.135Z,82.64
2018-10-18T02:38:46.271Z,81.97
2018-10-18T02:39:12.435Z,82.07
2018-10-18T02:39:38.568Z,81.87
2018-10-18T02:40:04.715Z,81.87
2018-10-18T02:40:30.881Z,82.16
2018-10-18T02:40:57.016Z,82.54
2018-10-18T02:41:23.207Z,82.16
2018-10-18T02:41:49.362Z,82.64
2018-10-18T02:42:15.523Z,82.35
2018-10-18T02:42:41.648Z,82.35
2018-10-18T02:43:07.832Z,82.26
2018-10-18T02:43:33.988Z,82.35
2018-10-18T02:44:00.144Z,82.54
2018-10-18T02:44:26.275Z,82.93
2018-10-18T02:44:52.431Z,82.93
2018-10-18T02:45:18.589Z,82.84
2018-10-18T02:45:44.720Z,82.74
2018-10-18T02:46:10.859Z,81.59
2018-10-18T02:46:37.037Z,82.16
2018-10-18T02:47:03.201Z,82.54
2018-10-18T02:47:29.339Z,81.87
2018-10-18T02:47:55.553Z,81.78
2018-10-18T02:48:21.607Z,81.68
2018-10-18T02:48:47.764Z,81.68
2018-10-18T02:49:13.905Z,81.87
2018-10-18T02:49:40.061Z,81.87
2018-10-18T02:50:06.225Z,81.49
2018-10-18T02:50:32.397Z,81.87
2018-10-18T02:50:58.591Z,81.68
2018-10-18T02:51:24.716Z,81.68
2018-10-18T02:51:50.862Z,81.97
2018-10-18T02:52:17.017Z,82.07
2018-10-18T02:52:43.178Z,81.78
2018-10-18T02:53:09.334Z,81.4
2018-10-18T02:53:35.469Z,81.4
2018-10-18T02:54:01.726Z,81.4
2018-10-18T02:54:27.795Z,81.68
2018-10-18T02:54:53.946Z,81.49
2018-10-18T02:55:20.108Z,81.49
2018-10-18T02:55:46.243Z,81.59
2018-10-18T02:56:12.452Z,81.4
2018-10-18T02:56:38.607Z,81.4
2018-10-18T02:57:04.768Z,81.78
2018-10-18T02:57:30.923Z,81.59
2018-10-18T02:57:57.057Z,81.68
2018-10-18T02:58:23.183Z,81.78
2018-10-18T02:58:49.315Z,81.68
2018-10-18T02:59:15.445Z,81.49
2018-10-18T02:59:41.574Z,81.68
2018-10-18T03:00:07.787Z,81.59
2018-10-18T03:00:33.881Z,81.4
2018-10-18T03:01:00.011Z,81.78
2018-10-18T03:01:26.170Z,81.01
2018-10-18T03:01:52.303Z,80.91
2018-10-18T03:02:18.433Z,81.1
2018-10-18T03:02:44.616Z,81.1
2018-10-18T03:03:10.753Z,81.2
2018-10-18T03:03:36.885Z,81.78
2018-10-18T03:04:03.013Z,81.01
2018-10-18T03:04:29.175Z,81.49
2018-10-18T03:04:55.361Z,81.49
2018-10-18T03:05:21.501Z,81.87
2018-10-18T03:05:47.654Z,81.78
2018-10-18T03:06:13.916Z,81.49
2018-10-18T03:06:39.978Z,82.07
2018-10-18T03:07:06.111Z,81.68
2018-10-18T03:07:32.269Z,81.68
2018-10-18T03:07:58.422Z,81.3
2018-10-18T03:08:24.567Z,81.49
2018-10-18T03:08:50.725Z,82.16
2018-10-18T03:09:16.904Z,82.45
2018-10-18T03:09:43.033Z,82.64
2018-10-18T03:10:09.214Z,82.54
2018-10-18T03:10:35.347Z,82.54
2018-10-18T03:11:01.520Z,82.64
2018-10-18T03:11:27.670Z,82.93
2018-10-18T03:11:53.857Z,82.74
2018-10-18T03:12:20.092Z,81.87
2018-10-18T03:12:46.143Z,81.49
2018-10-18T03:13:12.278Z,81.49
2018-10-18T03:13:38.481Z,81.68
2018-10-18T03:14:04.615Z,81.3
2018-10-18T03:14:30.750Z,81.68
2018-10-18T03:14:56.904Z,81.59
2018-10-18T03:15:23.041Z,81.59
2018-10-18T03:15:49.214Z,81.87
2018-10-18T03:16:15.471Z,81.68
2018-10-18T03:16:41.498Z,81.68
2018-10-18T03:17:07.655Z,81.59
2018-10-18T03:17:33.825Z,81.59
2018-10-18T03:18:00.015Z,81.87
2018-10-18T03:18:26.127Z,82.07
2018-10-18T03:18:52.265Z,81.68
2018-10-18T03:19:18.417Z,81.78
2018-10-18T03:19:44.594Z,81.97
2018-10-18T03:20:10.770Z,81.4
2018-10-18T03:20:36.907Z,81.49
2018-10-18T03:21:03.068Z,82.07
2018-10-18T03:21:29.193Z,81.4
2018-10-18T03:21:55.355Z,81.97
2018-10-18T03:22:21.488Z,81.49
2018-10-18T03:22:47.650Z,81.59
2018-10-18T03:23:13.772Z,81.97
2018-10-18T03:23:39.930Z,80.91
2018-10-18T03:24:06.160Z,81.2
2018-10-18T03:24:32.200Z,81.2
2018-10-18T03:24:58.336Z,81.1
2018-10-18T03:25:24.463Z,81.2
2018-10-18T03:25:50.604Z,81.1
2018-10-18T03:26:16.757Z,81.2
2018-10-18T03:26:42.931Z,81.2
2018-10-18T03:27:09.063Z,81.1
2018-10-18T03:27:35.203Z,81.01
2018-10-18T03:28:01.353Z,81.4
2018-10-18T03:28:27.499Z,81.49
2018-10-18T03:28:53.650Z,80.91
2018-10-18T03:29:19.785Z,81.3
2018-10-18T03:29:45.917Z,81.3
2018-10-18T03:30:12.078Z,81.3
2018-10-18T03:30:38.206Z,81.2
2018-10-18T03:31:04.371Z,81.3
2018-10-18T03:31:30.520Z,81.3
2018-10-18T03:31:56.708Z,81.3
2018-10-18T03:32:22.930Z,81.4
2018-10-18T03:32:49.106Z,81.1
2018-10-18T03:33:15.239Z,81.1
2018-10-18T03:33:41.374Z,81.2
2018-10-18T03:34:07.511Z,81.3
2018-10-18T03:34:33.668Z,81.01
2018-10-18T03:34:59.798Z,81.01
2018-10-18T03:35:25.954Z,81.1
2018-10-18T03:35:52.119Z,81.01
2018-10-18T03:36:18.376Z,81.01
2018-10-18T03:36:44.386Z,80.91
2018-10-18T03:37:10.567Z,81.59
2018-10-18T03:37:36.751Z,81.78
2018-10-18T03:38:02.966Z,81.49
2018-10-18T03:38:29.104Z,81.49
2018-10-18T03:38:55.255Z,81.78
2018-10-18T03:39:21.411Z,81.3
2018-10-18T03:39:47.549Z,81.87
2018-10-18T03:40:13.680Z,81.59
2018-10-18T03:40:39.816Z,81.97
2018-10-18T03:41:05.949Z,81.87
2018-10-18T03:41:32.158Z,81.3
2018-10-18T03:41:58.319Z,81.4
2018-10-18T03:42:24.396Z,81.3
2018-10-18T03:42:50.525Z,81.2
2018-10-18T03:43:16.663Z,81.49
2018-10-18T03:43:42.791Z,81.68
2018-10-18T03:44:08.923Z,82.07
2018-10-18T03:44:35.053Z,81.59
2018-10-18T03:45:01.214Z,81.68
2018-10-18T03:45:27.354Z,81.59
2018-10-18T03:45:53.483Z,81.59
2018-10-18T03:46:19.617Z,81.59
2018-10-18T03:46:45.756Z,81.59
2018-10-18T03:47:11.884Z,81.68
2018-10-18T03:47:38.018Z,81.59
2018-10-18T03:48:04.221Z,81.49
2018-10-18T03:48:30.352Z,81.59
2018-10-18T03:48:56.522Z,81.3
2018-10-18T03:49:22.699Z,81.59
2018-10-18T03:49:48.860Z,81.59
2018-10-18T03:50:15.023Z,81.78
2018-10-18T03:50:41.149Z,81.68
2018-10-18T03:51:07.289Z,81.59
2018-10-18T03:51:33.427Z,81.78
2018-10-18T03:51:59.589Z,81.68
2018-10-18T03:52:25.801Z,81.68
2018-10-18T03:52:51.957Z,81.87
2018-10-18T03:53:18.092Z,81.68
2018-10-18T03:53:44.261Z,81.4
2018-10-18T03:54:10.412Z,81.49
2018-10-18T03:54:36.556Z,81.49
2018-10-18T03:55:02.696Z,81.78
2018-10-18T03:55:28.844Z,81.49
2018-10-18T03:55:54.977Z,81.78
2018-10-18T03:56:21.115Z,81.49
2018-10-18T03:56:47.248Z,81.49
2018-10-18T03:57:13.409Z,81.68
2018-10-18T03:57:39.585Z,81.68
2018-10-18T03:58:05.786Z,81.87
2018-10-18T03:58:31.991Z,81.68
2018-10-18T03:58:58.149Z,81.87
2018-10-18T03:59:24.404Z,81.4
2018-10-18T03:59:50.678Z,81.68
2018-10-18T04:00:16.801Z,81.97
2018-10-18T04:00:42.784Z,81.87
2018-10-18T04:01:08.916Z,81.4
2018-10-18T04:01:35.074Z,81.4
2018-10-18T04:02:01.235Z,81.97
2018-10-18T04:02:27.364Z,81.97
2018-10-18T04:02:53.533Z,81.59
2018-10-18T04:03:19.663Z,81.4
2018-10-18T04:03:45.819Z,81.3
2018-10-18T04:04:11.990Z,81.78
2018-10-18T04:04:38.126Z,81.59
2018-10-18T04:05:04.282Z,81.68
2018-10-18T04:05:30.446Z,81.59
2018-10-18T04:05:56.692Z,81.78
2018-10-18T04:06:22.901Z,81.78
2018-10-18T04:06:48.875Z,81.49
2018-10-18T04:07:15.013Z,81.87
2018-10-18T04:07:41.144Z,81.68
2018-10-18T04:08:07.306Z,81.68
2018-10-18T04:08:33.476Z,81.59
2018-10-18T04:08:59.627Z,81.87
2018-10-18T04:09:25.819Z,81.78
2018-10-18T04:09:51.951Z,81.59
2018-10-18T04:10:18.090Z,81.4
2018-10-18T04:10:44.239Z,81.68
2018-10-18T04:11:10.378Z,81.97
2018-10-18T04:11:36.530Z,81.87
2018-10-18T04:12:02.789Z,81.97
2018-10-18T04:12:28.889Z,81.97
2018-10-18T04:12:55.133Z,81.49
2018-10-18T04:13:21.224Z,81.68
2018-10-18T04:13:47.382Z,81.49
2018-10-18T04:14:13.542Z,81.3
2018-10-18T04:14:39.693Z,80.91
2018-10-18T04:15:05.829Z,81.59
2018-10-18T04:15:31.978Z,81.2
2018-10-18T04:15:58.132Z,81.1
2018-10-18T04:16:24.272Z,81.49
2018-10-18T04:16:50.407Z,81.49
2018-10-18T04:17:16.537Z,81.87
2018-10-18T04:17:42.698Z,81.59
2018-10-18T04:18:08.952Z,81.78
2018-10-18T04:18:35.188Z,81.87
2018-10-18T04:19:01.165Z,81.78
2018-10-18T04:19:27.344Z,81.4
2018-10-18T04:19:53.507Z,80.82
2018-10-18T04:20:19.661Z,81.01
2018-10-18T04:20:45.798Z,81.01
2018-10-18T04:21:11.960Z,81.1
2018-10-18T04:21:38.141Z,81.01
2018-10-18T04:22:04.324Z,81.3
2018-10-18T04:22:30.466Z,81.4
2018-10-18T04:22:56.601Z,80.91
2018-10-18T04:23:22.736Z,81.01
2018-10-18T04:23:48.872Z,81.2
2018-10-18T04:24:15.131Z,81.3
2018-10-18T04:24:41.204Z,81.1
2018-10-18T04:25:07.328Z,80.82
2018-10-18T04:25:33.508Z,80.82
2018-10-18T04:25:59.615Z,80.82
2018-10-18T04:26:25.769Z,80.82
2018-10-18T04:26:51.904Z,81.01
2018-10-18T04:27:18.041Z,81.1
2018-10-18T04:27:44.169Z,80.91
2018-10-18T04:28:10.299Z,80.82
2018-10-18T04:28:36.457Z,80.73
2018-10-18T04:29:02.587Z,80.82
2018-10-18T04:29:28.776Z,80.73
2018-10-18T04:29:54.946Z,80.91
2018-10-18T04:30:21.178Z,80.43
2018-10-18T04:30:47.209Z,80.15
2018-10-18T04:31:13.343Z,80.24
2018-10-18T04:31:39.477Z,80.82
2018-10-18T04:32:05.630Z,80.63
2018-10-18T04:32:31.758Z,80.15
2018-10-18T04:32:57.929Z,80.43
2018-10-18T04:33:24.105Z,80.43
2018-10-18T04:33:50.255Z,80.15
2018-10-18T04:34:16.411Z,80.24
2018-10-18T04:34:42.570Z,80.73
2018-10-18T04:35:08.754Z,80.73
2018-10-18T04:35:34.926Z,80.63
2018-10-18T04:36:01.128Z,80.63
2018-10-18T04:36:27.234Z,80.91
2018-10-18T04:36:53.388Z,80.63
2018-10-18T04:37:19.573Z,80.63
2018-10-18T04:37:45.649Z,80.91
2018-10-18T04:38:11.786Z,80.43
2018-10-18T04:38:37.923Z,80.34
2018-10-18T04:39:04.055Z,80.34
2018-10-18T04:39:30.232Z,80.34
2018-10-18T04:39:56.371Z,80.91
2018-10-18T04:40:22.527Z,80.82
2018-10-18T04:40:48.660Z,80.63
2018-10-18T04:41:14.864Z,80.82
2018-10-18T04:41:41.053Z,80.43
2018-10-18T04:42:07.231Z,80.63
2018-10-18T04:42:33.366Z,80.63
2018-10-18T04:42:59.513Z,80.53
2018-10-18T04:43:25.708Z,80.53
2018-10-18T04:43:51.866Z,80.82
2018-10-18T04:44:18.044Z,81.3
2018-10-18T04:44:44.176Z,81.59
2018-10-18T04:45:10.304Z,81.3
2018-10-18T04:45:36.447Z,81.4
2018-10-18T04:46:02.580Z,81.59
2018-10-18T04:46:28.709Z,81.1
2018-10-18T04:46:54.842Z,81.49
2018-10-18T04:47:21.075Z,81.1
2018-10-18T04:47:47.245Z,81.1
2018-10-18T04:48:13.443Z,81.1
2018-10-18T04:48:39.459Z,81.2
2018-10-18T04:49:05.614Z,80.91
2018-10-18T04:49:31.765Z,81.1
2018-10-18T04:49:57.895Z,81.01
2018-10-18T04:50:24.077Z,81.68
2018-10-18T04:50:50.256Z,81.49
2018-10-18T04:51:16.398Z,81.4
2018-10-18T04:51:42.523Z,81.59
2018-10-18T04:52:08.661Z,81.78
2018-10-18T04:52:34.819Z,81.97
2018-10-18T04:53:00.978Z,81.4
2018-10-18T04:53:27.108Z,81.4
2018-10-18T04:53:53.277Z,81.4
2018-10-18T04:54:19.411Z,81.1
2018-10-18T04:54:45.544Z,81.4
2018-10-18T04:55:11.747Z,81.3
2018-10-18T04:55:37.867Z,81.97
2018-10-18T04:56:04.029Z,81.3
2018-10-18T04:56:30.180Z,81.78
2018-10-18T04:56:56.417Z,81.59
2018-10-18T04:57:22.464Z,81.97
2018-10-18T04:57:48.626Z,81.49
2018-10-18T04:58:14.781Z,81.4
2018-10-18T04:58:40.933Z,81.4
2018-10-18T04:59:07.069Z,81.59
2018-10-18T04:59:33.214Z,81.3
2018-10-18T04:59:59.331Z,81.59
2018-10-18T05:00:25.482Z,81.4
2018-10-18T05:00:51.623Z,81.59
2018-10-18T05:01:17.959Z,81.1
2018-10-18T05:01:44.020Z,81.49
2018-10-18T05:02:10.161Z,81.87
2018-10-18T05:02:36.338Z,81.78
2018-10-18T05:03:02.470Z,81.59
2018-10-18T05:03:28.606Z,81.78
2018-10-18T05:03:54.744Z,81.68
2018-10-18T05:04:20.874Z,81.97
2018-10-18T05:04:47.013Z,81.49
2018-10-18T05:05:13.188Z,81.49
2018-10-18T05:05:39.314Z,81.78
2018-10-18T05:06:05.447Z,81.87
2018-10-18T05:06:31.607Z,81.49
2018-10-18T05:06:57.791Z,81.97
2018-10-18T05:07:23.914Z,82.07
2018-10-18T05:07:50.067Z,81.49
2018-10-18T05:08:16.198Z,82.07
2018-10-18T05:08:42.380Z,81.97
2018-10-18T05:09:08.530Z,81.97
2018-10-18T05:09:34.663Z,81.4
2018-10-18T05:10:00.804Z,81.87
2018-10-18T05:10:26.934Z,81.87
2018-10-18T05:10:53.058Z,81.59
2018-10-18T05:11:19.329Z,81.68
2018-10-18T05:11:45.339Z,81.78
2018-10-18T05:12:11.472Z,81.78
2018-10-18T05:12:37.633Z,81.49
2018-10-18T05:13:03.816Z,81.68
2018-10-18T05:13:29.927Z,81.4
2018-10-18T05:13:56.134Z,81.78
2018-10-18T05:14:22.218Z,81.68
2018-10-18T05:14:48.350Z,81.3
2018-10-18T05:15:14.516Z,81.59
2018-10-18T05:15:40.620Z,81.49
2018-10-18T05:16:06.753Z,81.68
2018-10-18T05:16:32.883Z,81.4
2018-10-18T05:16:59.025Z,81.2
2018-10-18T05:17:25.154Z,81.49
2018-10-18T05:17:51.289Z,81.49
2018-10-18T05:18:17.422Z,81.68
2018-10-18T05:18:43.561Z,81.49
2018-10-18T05:19:09.811Z,81.59
2018-10-18T05:19:35.899Z,81.59
2018-10-18T05:20:02.031Z,81.59
2018-10-18T05:20:28.190Z,81.78
2018-10-18T05:20:54.317Z,81.4
2018-10-18T05:21:20.451Z,81.4
2018-10-18T05:21:46.589Z,81.87
2018-10-18T05:22:12.743Z,81.68
2018-10-18T05:22:38.877Z,81.49
2018-10-18T05:23:05.017Z,81.3
2018-10-18T05:23:31.152Z,81.3
2018-10-18T05:23:57.306Z,81.49
2018-10-18T05:24:23.440Z,81.87
2018-10-18T05:24:49.577Z,81.2
2018-10-18T05:25:15.812Z,80.91
2018-10-18T05:25:42.014Z,81.49
2018-10-18T05:26:08.090Z,81.35
2018-10-18T05:26:34.268Z,81.4
2018-10-18T05:27:00.425Z,81.68
2018-10-18T05:27:26.578Z,81.3
2018-10-18T05:27:52.743Z,81.49
2018-10-18T05:28:18.875Z,81.49
2018-10-18T05:28:45.003Z,81.97
2018-10-18T05:29:11.136Z,81.1
2018-10-18T05:29:37.295Z,81.4
2018-10-18T05:30:03.433Z,81.78
2018-10-18T05:30:29.562Z,81.78
2018-10-18T05:30:55.749Z,81.59
2018-10-18T05:31:22.003Z,81.68
2018-10-18T05:31:48.222Z,81.49
2018-10-18T05:32:14.187Z,81.4
2018-10-18T05:32:40.316Z,81.78
2018-10-18T05:33:06.451Z,81.4
2018-10-18T05:33:32.580Z,81.64
2018-10-18T05:33:58.734Z,81.64
2018-10-18T05:34:24.864Z,81.45
2018-10-18T05:34:51.003Z,82.03
2018-10-18T05:35:17.131Z,81.64
2018-10-18T05:35:43.301Z,81.45
2018-10-18T05:36:09.438Z,81.45
2018-10-18T05:36:35.594Z,81.35
2018-10-18T05:37:01.783Z,81.93
2018-10-18T05:37:27.902Z,81.93
2018-10-18T05:37:54.138Z,81.35
2018-10-18T05:38:20.158Z,81.84